createdAt,value
2018-09-29T00:01:05.341Z,15.90
2018-09-29T00:03:32.824Z,15.90
2018-09-29T00:06:00.385Z,15.90
2018-09-29T00:08:27.979Z,15.90
2018-09-29T00:10:55.468Z,15.90
2018-09-29T00:13:22.971Z,15.70
2018-09-29T00:15:50.611Z,15.70
2018-09-29T00:18:18.231Z,15.60
2018-09-29T00:20:45.875Z,15.70
2018-09-29T00:23:13.375Z,15.50
2018-09-29T00:25:40.872Z,15.50
2018-09-29T00:28:08.333Z,15.40
2018-09-29T00:30:40.124Z,15.30
2018-09-29T00:33:07.703Z,15.20
2018-09-29T00:35:35.340Z,15.20
2018-09-29T00:38:03.103Z,15.10
2018-09-29T00:40:30.572Z,15.00
2018-09-29T00:42:58.095Z,15.00
2018-09-29T00:45:25.585Z,15.20
2018-09-29T00:47:53.128Z,15.10
2018-09-29T00:50:20.735Z,15.00
2018-09-29T00:56:10.504Z,14.80
2018-09-29T00:58:38.260Z,14.80
2018-09-29T01:01:05.854Z,14.80
2018-09-29T01:03:33.501Z,14.90
2018-09-29T01:06:01.067Z,14.80
2018-09-29T01:08:28.728Z,14.80
2018-09-29T01:10:56.243Z,14.80
2018-09-29T01:13:23.687Z,14.80
2018-09-29T01:15:51.290Z,14.70
2018-09-29T01:18:18.958Z,14.60
2018-09-29T01:20:46.854Z,14.60
2018-09-29T01:23:14.492Z,14.60
2018-09-29T01:25:42.023Z,14.50
2018-09-29T01:28:09.535Z,14.60
2018-09-29T01:30:37.143Z,14.60
2018-09-29T01:33:04.781Z,14.50
2018-09-29T01:35:32.356Z,14.40
2018-09-29T01:37:59.952Z,14.40
2018-09-29T01:40:27.581Z,14.40
2018-09-29T01:42:55.173Z,14.30
2018-09-29T01:45:22.769Z,14.20
2018-09-29T01:47:50.371Z,14.10
2018-09-29T01:50:17.987Z,14.10
2018-09-29T01:52:45.694Z,14.00
2018-09-29T01:55:13.314Z,14.00
2018-09-29T01:57:41.235Z,13.80
2018-09-29T02:00:08.992Z,13.80
2018-09-29T02:02:36.806Z,13.80
2018-09-29T02:05:04.633Z,13.80
2018-09-29T02:07:32.529Z,13.80
2018-09-29T02:10:00.253Z,13.80
2018-09-29T02:12:28.017Z,13.60
2018-09-29T02:14:55.644Z,13.60
2018-09-29T02:17:23.294Z,13.60
2018-09-29T02:19:50.890Z,13.70
2018-09-29T02:22:18.533Z,13.60
2018-09-29T02:24:46.143Z,13.50
2018-09-29T02:27:13.888Z,13.60
2018-09-29T02:29:41.502Z,13.40
2018-09-29T02:32:09.112Z,13.40
2018-09-29T02:34:36.725Z,13.50
2018-09-29T02:37:04.338Z,13.40
2018-09-29T02:39:31.965Z,13.40
2018-09-29T02:41:59.575Z,13.40
2018-09-29T02:44:27.193Z,13.30
2018-09-29T02:46:54.814Z,13.20
2018-09-29T02:49:22.346Z,13.20
2018-09-29T02:51:50.137Z,13.20
2018-09-29T02:54:17.806Z,13.20
2018-09-29T02:56:45.492Z,13.20
2018-09-29T02:59:13.082Z,13.20
2018-09-29T03:01:40.938Z,13.20
2018-09-29T03:04:08.497Z,13.20
2018-09-29T03:06:36.043Z,13.10
2018-09-29T03:09:05.285Z,13.10
2018-09-29T03:11:32.800Z,13.00
2018-09-29T03:14:00.218Z,13.10
2018-09-29T03:16:27.696Z,12.90
2018-09-29T03:18:55.144Z,12.80
2018-09-29T03:21:22.625Z,12.70
2018-09-29T03:23:50.243Z,12.70
2018-09-29T03:26:17.808Z,12.80
2018-09-29T03:28:45.312Z,12.70
2018-09-29T03:31:12.856Z,12.60
2018-09-29T03:33:40.438Z,12.70
2018-09-29T03:36:08.040Z,12.50
2018-09-29T03:38:35.549Z,12.40
2018-09-29T03:41:03.124Z,12.30
2018-09-29T03:43:30.633Z,12.30
2018-09-29T03:45:58.261Z,12.40
2018-09-29T03:48:25.886Z,12.50
2018-09-29T03:50:53.501Z,12.30
2018-09-29T03:53:21.274Z,12.30
2018-09-29T03:55:48.805Z,12.10
2018-09-29T03:58:16.334Z,12.00
2018-09-29T04:00:44.246Z,12.00
2018-09-29T04:03:11.789Z,12.00
2018-09-29T04:05:39.410Z,12.10
2018-09-29T04:08:06.967Z,12.10
2018-09-29T04:10:34.655Z,12.10
2018-09-29T04:13:02.164Z,12.10
2018-09-29T04:15:29.923Z,12.00
2018-09-29T04:17:57.845Z,12.10
2018-09-29T04:20:25.413Z,12.00
2018-09-29T04:22:53.086Z,11.90
2018-09-29T04:25:20.672Z,11.80
2018-09-29T04:27:48.195Z,11.70
2018-09-29T04:30:15.847Z,11.60
2018-09-29T04:32:43.385Z,11.50
2018-09-29T04:35:10.993Z,11.60
2018-09-29T04:37:38.616Z,11.60
2018-09-29T04:40:06.209Z,11.70
2018-09-29T04:42:33.695Z,11.60
2018-09-29T04:45:01.111Z,11.50
2018-09-29T04:47:28.663Z,11.50
2018-09-29T04:49:56.257Z,11.30
2018-09-29T04:52:23.731Z,11.30
2018-09-29T04:54:51.294Z,11.40
2018-09-29T04:57:18.906Z,11.30
2018-09-29T04:59:46.488Z,11.10
2018-09-29T05:02:13.977Z,11.20
2018-09-29T05:04:41.542Z,11.30
2018-09-29T05:07:09.133Z,11.30
2018-09-29T05:09:36.698Z,11.30
2018-09-29T05:12:04.142Z,11.20
2018-09-29T05:14:31.662Z,11.10
2018-09-29T05:16:59.163Z,11.10
2018-09-29T05:19:26.646Z,11.10
2018-09-29T05:21:54.258Z,11.10
2018-09-29T05:24:21.784Z,11.00
2018-09-29T05:26:49.343Z,11.00
2018-09-29T05:29:16.823Z,11.00
2018-09-29T05:32:04.259Z,11.00
2018-09-29T05:34:31.780Z,10.90
2018-09-29T05:36:59.260Z,11.00
2018-09-29T05:39:27.048Z,11.10
2018-09-29T05:41:54.612Z,11.00
2018-09-29T05:44:22.281Z,10.90
2018-09-29T05:46:49.811Z,10.90
2018-09-29T05:49:17.418Z,10.80
2018-09-29T05:51:45.075Z,10.80
2018-09-29T05:54:12.716Z,10.80
2018-09-29T05:56:40.189Z,10.70
2018-09-29T05:59:07.711Z,10.80
2018-09-29T06:01:35.216Z,10.70
2018-09-29T06:04:02.799Z,10.70
2018-09-29T06:06:31.188Z,10.80
2018-09-29T06:09:01.673Z,10.90
2018-09-29T06:11:29.245Z,10.80
2018-09-29T06:13:57.209Z,10.80
2018-09-29T06:16:24.717Z,10.80
2018-09-29T06:18:52.567Z,10.90
2018-09-29T06:21:20.169Z,11.00
2018-09-29T06:23:47.905Z,11.10
2018-09-29T06:26:15.478Z,11.00
2018-09-29T06:28:43.067Z,11.10
2018-09-29T06:31:10.716Z,11.10
2018-09-29T06:33:38.199Z,11.10
2018-09-29T06:36:05.662Z,11.10
2018-09-29T06:38:34.044Z,11.00
2018-09-29T06:41:01.996Z,11.20
2018-09-29T06:43:29.681Z,11.10
2018-09-29T06:45:57.830Z,11.10
2018-09-29T07:40:27.263Z,12.40
2018-09-29T07:42:54.862Z,12.60
2018-09-29T07:45:22.354Z,12.50
2018-09-29T07:47:49.801Z,12.50
2018-09-29T07:50:17.249Z,12.70
2018-09-29T07:52:44.889Z,12.80
2018-09-29T07:55:12.457Z,12.70
2018-09-29T07:57:39.955Z,13.10
2018-09-29T08:00:07.495Z,13.00
2018-09-29T08:02:35.027Z,13.20
2018-09-29T08:05:02.547Z,13.20
2018-09-29T08:07:30.094Z,13.30
2018-09-29T08:09:57.635Z,13.20
2018-09-29T08:12:25.507Z,13.50
2018-09-29T08:14:53.033Z,13.50
2018-09-29T08:17:20.455Z,13.60
2018-09-29T08:19:47.971Z,13.50
2018-09-29T08:22:15.832Z,13.80
2018-09-29T08:24:43.359Z,13.90
2018-09-29T08:27:10.817Z,14.10
2018-09-29T08:29:38.423Z,14.30
2018-09-29T08:32:06.116Z,14.20
2018-09-29T08:34:33.974Z,14.40
2018-09-29T08:37:01.849Z,14.50
2018-09-29T08:39:29.336Z,14.70
2018-09-29T08:41:56.815Z,14.90
2018-09-29T08:44:24.314Z,15.10
2018-09-29T08:46:52.160Z,15.40
2018-09-29T08:49:19.666Z,15.60
2018-09-29T08:51:47.264Z,15.80
2018-09-29T08:54:14.718Z,15.90
2018-09-29T08:56:42.402Z,16.30
2018-09-29T08:59:10.016Z,16.50
2018-09-29T09:01:37.527Z,16.50
2018-09-29T09:04:05.080Z,16.50
2018-09-29T09:06:32.460Z,16.60
2018-09-29T09:08:59.955Z,17.00
2018-09-29T09:11:27.533Z,16.90
2018-09-29T09:13:55.137Z,17.20
2018-09-29T09:16:22.563Z,17.50
2018-09-29T09:18:49.922Z,17.60
2018-09-29T09:21:17.336Z,17.70
2018-09-29T09:23:44.940Z,18.00
2018-09-29T09:26:12.335Z,18.30
2018-09-29T09:28:39.856Z,18.40
2018-09-29T09:31:07.459Z,18.40
2018-09-29T09:33:35.013Z,18.30
2018-09-29T09:36:02.550Z,18.30
2018-09-29T09:38:30.002Z,18.80
2018-09-29T09:40:57.467Z,18.90
2018-09-29T09:43:25.199Z,19.10
2018-09-29T09:45:52.690Z,19.10
2018-09-29T09:48:20.226Z,19.10
2018-09-29T09:50:48.687Z,19.00
2018-09-29T09:53:16.380Z,19.10
2018-09-29T09:55:44.403Z,19.10
2018-09-29T09:58:13.335Z,19.40
2018-09-29T10:01:44.176Z,19.60
2018-09-29T10:04:11.668Z,19.60
2018-09-29T10:06:39.088Z,19.80
2018-09-29T10:09:08.939Z,19.70
2018-09-29T10:11:37.535Z,19.70
2018-09-29T10:14:05.066Z,20.10
2018-09-29T10:16:33.128Z,20.00
2018-09-29T10:19:03.017Z,20.10
2018-09-29T10:21:30.441Z,20.20
2018-09-29T10:23:57.853Z,20.30
2018-09-29T10:26:25.291Z,20.60
2018-09-29T10:28:52.852Z,20.70
2018-09-29T10:31:20.508Z,20.80
2018-09-29T10:33:48.066Z,20.90
2018-09-29T10:36:15.694Z,21.00
2018-09-29T10:38:43.463Z,21.10
2018-09-29T10:41:11.029Z,21.40
2018-09-29T10:43:38.716Z,21.40
2018-09-29T10:46:06.581Z,21.30
2018-09-29T10:48:34.139Z,21.50
2018-09-29T10:51:01.737Z,21.50
2018-09-29T10:53:29.398Z,21.60
2018-09-29T10:55:57.065Z,21.70
2018-09-29T10:58:24.599Z,21.80
2018-09-29T11:00:52.144Z,22.00
2018-09-29T11:03:19.636Z,21.90
2018-09-29T11:05:51.646Z,22.00
2018-09-29T11:08:20.731Z,21.90
2018-09-29T11:10:50.908Z,22.00
2018-09-29T11:13:18.782Z,22.00
2018-09-29T11:42:49.468Z,22.40
2018-09-29T11:45:17.058Z,22.50
2018-09-29T11:47:49.785Z,22.50
2018-09-29T11:50:17.303Z,22.60
2018-09-29T11:52:47.276Z,22.80
2018-09-29T11:55:19.275Z,22.70
2018-09-29T11:57:57.803Z,22.80
2018-09-29T12:00:30.012Z,23.00
2018-09-29T12:06:07.142Z,23.10
2018-09-29T12:08:38.883Z,23.30
2018-09-29T12:11:06.379Z,23.40
2018-09-29T12:13:33.954Z,23.60
2018-09-29T12:21:27.449Z,23.30
2018-09-29T12:23:55.390Z,23.30
2018-09-29T12:26:22.847Z,23.40
2018-09-29T12:28:50.380Z,23.40
2018-09-29T12:31:38.744Z,23.40
2018-09-29T12:34:16.154Z,23.60
2018-09-29T12:36:47.938Z,23.70
2018-09-29T12:39:15.332Z,23.80
2018-09-29T12:41:42.753Z,24.10
2018-09-29T12:44:10.167Z,24.00
2018-09-29T12:46:37.668Z,23.90
2018-09-29T12:49:05.177Z,24.00
2018-09-29T12:51:32.614Z,24.30
2018-09-29T12:54:00.084Z,24.40
2018-09-29T12:56:27.634Z,24.20
2018-09-29T12:58:55.045Z,24.30
2018-09-29T13:01:22.601Z,24.20
2018-09-29T13:03:50.018Z,24.40
2018-09-29T13:06:17.823Z,24.50
2018-09-29T13:08:45.249Z,24.60
2018-09-29T13:11:12.711Z,24.40
2018-09-29T13:13:40.126Z,24.40
2018-09-29T13:16:07.557Z,24.40
2018-09-29T13:18:34.965Z,24.30
2018-09-29T13:21:02.429Z,24.40
2018-09-29T13:23:29.806Z,24.40
2018-09-29T13:25:57.202Z,24.40
2018-09-29T13:28:24.702Z,24.40
2018-09-29T13:30:52.207Z,24.30
2018-09-29T13:33:19.550Z,24.40
2018-09-29T13:35:46.963Z,24.50
2018-09-29T13:38:14.437Z,24.40
2018-09-29T13:40:41.893Z,24.40
2018-09-29T13:43:09.356Z,24.50
2018-09-29T13:45:36.873Z,24.50
2018-09-29T13:48:04.255Z,24.50
2018-09-29T13:50:31.700Z,24.50
2018-09-29T13:52:59.204Z,24.40
2018-09-29T13:55:26.761Z,24.40
2018-09-29T13:57:54.126Z,24.50
2018-09-29T14:00:21.638Z,24.50
2018-09-29T14:02:49.206Z,24.70
2018-09-29T14:05:16.589Z,24.80
2018-09-29T14:07:44.027Z,24.90
2018-09-29T14:10:11.438Z,24.60
2018-09-29T14:12:38.790Z,24.60
2018-09-29T14:15:06.669Z,24.30
2018-09-29T14:17:34.174Z,23.90
2018-09-29T14:20:01.665Z,23.70
2018-09-29T14:22:29.046Z,23.70
2018-09-29T14:24:56.569Z,23.50
2018-09-29T14:27:23.999Z,23.30
2018-09-29T14:29:51.597Z,23.20
2018-09-29T14:32:19.178Z,23.10
2018-09-29T14:34:46.652Z,23.10
2018-09-29T14:37:14.086Z,23.00
2018-09-29T14:39:41.559Z,22.80
2018-09-29T14:42:09.064Z,22.70
2018-09-29T14:44:36.555Z,22.80
2018-09-29T14:47:04.119Z,22.80
2018-09-29T14:49:31.553Z,22.80
2018-09-29T14:51:58.971Z,22.70
2018-09-29T14:54:26.447Z,22.70
2018-09-29T14:56:53.937Z,22.70
2018-09-29T14:59:21.505Z,22.70
2018-09-29T15:01:49.061Z,22.70
2018-09-29T15:04:16.511Z,22.60
2018-09-29T15:06:43.935Z,22.60
2018-09-29T15:09:12.282Z,22.40
2018-09-29T15:11:39.836Z,22.30
2018-09-29T15:14:07.929Z,22.30
2018-09-29T15:16:35.475Z,22.40
2018-09-29T15:19:02.882Z,22.50
2018-09-29T15:21:30.408Z,22.50
2018-09-29T15:23:57.914Z,22.40
2018-09-29T15:26:25.478Z,22.40
2018-09-29T15:28:52.945Z,22.30
2018-09-29T15:31:20.484Z,22.30
2018-09-29T15:33:47.850Z,22.20
2018-09-29T15:36:15.372Z,22.20
2018-09-29T15:38:42.775Z,22.20
2018-09-29T15:41:10.220Z,22.10
2018-09-29T15:43:37.934Z,22.10
2018-09-29T15:46:05.618Z,22.00
2018-09-29T15:48:33.105Z,22.10
2018-09-29T15:51:00.512Z,22.00
2018-09-29T15:53:29.290Z,21.90
2018-09-29T15:55:56.829Z,21.80
2018-09-29T15:58:24.264Z,21.80
2018-09-29T16:00:51.758Z,21.70
2018-09-29T16:03:19.202Z,21.60
2018-09-29T16:05:47.786Z,21.50
2018-09-29T16:08:15.603Z,21.30
2018-09-29T16:10:43.124Z,21.10
2018-09-29T16:13:10.816Z,20.90
2018-09-29T16:15:38.427Z,20.90
2018-09-29T16:18:06.004Z,20.80
2018-09-29T16:20:33.489Z,20.60
2018-09-29T16:23:01.761Z,20.50
2018-09-29T16:25:31.244Z,20.50
2018-09-29T16:27:58.693Z,20.50
2018-09-29T16:30:26.160Z,20.30
2018-09-29T16:32:53.659Z,20.10
2018-09-29T16:35:21.233Z,20.00
2018-09-29T16:37:48.691Z,19.90
2018-09-29T16:40:16.240Z,19.80
2018-09-29T16:42:43.760Z,19.70
2018-09-29T16:45:12.029Z,19.60
2018-09-29T16:47:40.628Z,19.50
2018-09-29T16:50:08.205Z,19.40
2018-09-29T16:52:38.266Z,19.20
2018-09-29T16:55:09.243Z,19.20
2018-09-29T16:57:45.513Z,19.20
2018-09-29T17:00:16.324Z,19.10
2018-09-29T17:02:44.296Z,19.00
2018-09-29T17:05:13.209Z,18.90
2018-09-29T17:07:41.034Z,18.90
2018-09-29T17:10:10.114Z,18.70
2018-09-29T17:12:42.845Z,18.60
2018-09-29T17:15:14.467Z,18.60
2018-09-29T17:17:49.529Z,18.40
2018-09-29T17:20:20.643Z,18.40
2018-09-29T17:22:49.514Z,18.40
2018-09-29T17:25:17.024Z,18.30
2018-09-29T17:27:44.521Z,18.20
2018-09-29T17:30:13.621Z,18.30
2018-09-29T17:32:51.101Z,18.20
2018-09-29T17:35:25.673Z,18.20
2018-09-29T17:37:58.145Z,18.10
2018-09-29T17:43:12.476Z,17.90
2018-09-29T17:45:40.319Z,17.70
2018-09-29T17:48:07.652Z,17.60
2018-09-29T17:50:35.857Z,17.60
2018-09-29T17:53:03.440Z,17.50
2018-09-29T17:55:31.098Z,17.40
2018-09-29T17:57:58.726Z,17.50
2018-09-29T18:00:26.282Z,17.40
2018-09-29T18:02:54.051Z,17.40
2018-09-29T18:05:22.436Z,17.40
2018-09-29T18:07:50.972Z,17.20
2018-09-29T18:10:18.522Z,17.10
2018-09-29T18:12:46.050Z,17.00
2018-09-29T18:15:13.629Z,17.00
2018-09-29T18:30:40.669Z,16.90
2018-09-29T18:33:08.262Z,16.90
2018-09-29T18:35:35.851Z,16.60
2018-09-29T18:38:03.634Z,16.60
2018-09-29T18:40:31.104Z,16.50
2018-09-29T18:42:58.646Z,16.40
2018-09-29T18:45:26.151Z,16.50
2018-09-29T18:47:53.820Z,16.40
2018-09-29T18:50:21.349Z,16.30
2018-09-29T18:52:48.941Z,16.00
2018-09-29T18:55:16.484Z,16.00
2018-09-29T18:57:43.986Z,16.10
2018-09-29T19:00:11.502Z,16.00
2018-09-29T19:02:38.964Z,15.90
2018-09-29T19:05:06.644Z,15.90
2018-09-29T19:07:35.281Z,15.90
2018-09-29T19:10:02.949Z,15.80
2018-09-29T19:12:30.496Z,15.80
2018-09-29T19:14:58.051Z,15.70
2018-09-29T19:17:25.538Z,15.60
2018-09-29T19:19:53.169Z,15.60
2018-09-29T19:22:20.780Z,15.70
2018-09-29T19:24:48.320Z,15.60
2018-09-29T19:27:16.438Z,15.50
2018-09-29T19:29:43.888Z,15.40
2018-09-29T19:32:11.340Z,15.40
2018-09-29T19:34:38.900Z,15.40
2018-09-29T19:37:06.430Z,15.40
2018-09-29T19:39:33.910Z,15.30
2018-09-29T19:42:01.338Z,15.30
2018-09-29T19:44:41.959Z,15.20
2018-09-29T19:47:13.246Z,15.00
2018-09-29T19:49:42.518Z,15.00
2018-09-29T19:52:10.361Z,15.10
2018-09-29T19:54:38.114Z,15.00
2018-09-29T19:57:05.610Z,14.90
2018-09-29T19:59:33.585Z,14.90
2018-09-29T20:02:03.252Z,14.90
2018-09-29T20:04:48.495Z,14.90
2018-09-29T20:07:17.359Z,14.90
2018-09-29T20:09:45.485Z,14.80
2018-09-29T20:12:12.986Z,14.70
2018-09-29T20:15:04.763Z,14.60
2018-09-29T20:17:42.545Z,14.50
2018-09-29T20:20:36.302Z,14.50
2018-09-29T20:23:06.292Z,14.50
2018-09-29T20:25:33.874Z,14.40
2018-09-29T20:28:05.710Z,14.30
2018-09-29T20:30:33.653Z,14.20
2018-09-29T20:33:01.132Z,14.10
2018-09-29T20:35:28.706Z,14.10
2018-09-29T20:38:15.050Z,14.00
2018-09-29T20:40:43.106Z,14.00
2018-09-29T20:43:10.733Z,14.00
2018-09-29T20:45:38.295Z,13.90
2018-09-29T20:48:05.911Z,14.00
2018-09-29T20:50:34.458Z,13.90
2018-09-29T20:53:02.065Z,13.80
2018-09-29T20:55:29.718Z,13.80
2018-09-29T20:57:57.250Z,13.80
2018-09-29T21:00:48.731Z,13.70
2018-09-29T21:03:37.655Z,13.70
2018-09-29T21:06:05.697Z,13.80
2018-09-29T21:08:33.161Z,13.60
2018-09-29T21:11:00.732Z,13.50
2018-09-29T21:13:28.348Z,13.30
2018-09-29T21:15:55.609Z,13.30
2018-09-29T21:18:23.065Z,13.30
2018-09-29T21:20:50.563Z,13.30
2018-09-29T21:23:18.250Z,13.20
2018-09-29T21:25:45.767Z,13.20
2018-09-29T21:28:13.348Z,13.20
2018-09-29T21:30:40.826Z,13.10
2018-09-29T21:33:08.382Z,13.00
2018-09-29T21:35:35.831Z,13.00
2018-09-29T21:38:03.302Z,13.00
2018-09-29T21:40:30.711Z,12.90
2018-09-29T21:42:58.369Z,13.00
2018-09-29T21:45:25.949Z,12.90
2018-09-29T21:47:54.857Z,12.90
2018-09-29T22:48:16.941Z,11.80
2018-09-29T22:50:44.479Z,11.70
2018-09-29T22:53:11.915Z,11.70
2018-09-29T22:55:39.814Z,11.80
2018-09-29T22:58:07.654Z,11.70
2018-09-29T23:00:35.341Z,11.70
2018-09-29T23:03:03.182Z,11.60
2018-09-29T23:05:30.986Z,11.70
2018-09-29T23:07:58.709Z,11.60
2018-09-29T23:10:26.313Z,11.70
2018-09-29T23:12:54.028Z,11.70
2018-09-29T23:15:21.823Z,11.70
2018-09-29T23:17:49.406Z,11.80
2018-09-29T23:20:17.052Z,11.70
2018-09-29T23:22:44.590Z,11.80
2018-09-29T23:25:12.172Z,11.70
2018-09-29T23:27:39.839Z,11.80
2018-09-29T23:30:07.591Z,11.80
2018-09-29T23:32:35.203Z,11.80
2018-09-29T23:35:02.927Z,11.80
2018-09-29T23:37:30.957Z,11.70
2018-09-29T23:39:59.599Z,11.60
2018-09-29T23:42:27.528Z,11.60
2018-09-29T23:44:55.285Z,11.50
2018-09-29T23:47:23.105Z,11.50
2018-09-29T23:49:50.886Z,11.40
2018-09-29T23:52:18.583Z,11.40
2018-09-29T23:54:46.422Z,11.30
2018-09-29T23:57:14.180Z,11.20
2018-09-29T23:59:41.854Z,11.30
